createdAt,value
2018-11-05T00:00:46.072Z,8.97
2018-11-05T00:03:14.959Z,8.87
2018-11-05T00:05:43.098Z,8.95
2018-11-05T00:08:11.389Z,8.94
2018-11-05T00:10:39.680Z,8.92
2018-11-05T00:13:07.894Z,8.89
2018-11-05T00:15:36.198Z,8.85
2018-11-05T00:18:04.507Z,8.86
2018-11-05T00:20:32.830Z,8.85
2018-11-05T00:23:01.236Z,8.86
2018-11-05T00:25:29.420Z,8.89
2018-11-05T00:27:57.659Z,8.91
2018-11-05T00:30:26.672Z,8.94
2018-11-05T00:32:54.882Z,8.95
2018-11-05T00:35:23.019Z,8.93
2018-11-05T00:37:51.286Z,8.95
2018-11-05T00:40:19.419Z,8.98
2018-11-05T00:42:47.717Z,9.02
2018-11-05T00:45:16.135Z,9.04
2018-11-05T00:47:44.697Z,9.05
2018-11-05T00:50:14.356Z,9.09
2018-11-05T00:52:42.867Z,9.14
2018-11-05T00:55:11.851Z,9.18
2018-11-05T00:57:40.208Z,9.30
2018-11-05T01:00:10.471Z,9.33
2018-11-05T01:02:39.034Z,9.33
2018-11-05T01:05:08.117Z,9.32
2018-11-05T01:07:36.477Z,9.32
2018-11-05T01:10:05.036Z,9.34
2018-11-05T01:12:33.188Z,9.33
2018-11-05T01:15:01.579Z,9.28
2018-11-05T01:17:29.840Z,9.27
2018-11-05T01:19:58.929Z,9.24
2018-11-05T01:22:27.225Z,9.23
2018-11-05T01:24:55.358Z,9.27
2018-11-05T01:27:24.197Z,9.46
2018-11-05T01:29:52.461Z,9.44
2018-11-05T01:32:21.782Z,9.53
2018-11-05T01:34:50.130Z,9.49
2018-11-05T01:37:18.563Z,9.55
2018-11-05T01:39:46.681Z,9.52
2018-11-05T01:42:14.813Z,9.55
2018-11-05T01:44:42.964Z,9.58
2018-11-05T01:47:11.549Z,9.57
2018-11-05T01:49:39.780Z,9.59
2018-11-05T01:52:08.379Z,9.76
2018-11-05T01:54:36.553Z,9.77
2018-11-05T01:57:05.107Z,9.80
2018-11-05T01:59:33.338Z,9.62
2018-11-05T02:02:01.672Z,9.31
2018-11-05T02:04:30.043Z,9.32
2018-11-05T02:06:58.323Z,9.27
2018-11-05T02:09:26.467Z,9.27
2018-11-05T02:11:54.681Z,9.34
2018-11-05T02:14:22.906Z,9.42
2018-11-05T02:16:51.061Z,9.54
2018-11-05T02:19:19.246Z,9.59
2018-11-05T02:21:47.390Z,9.66
2018-11-05T02:24:15.562Z,9.72
2018-11-05T02:26:43.754Z,9.64
2018-11-05T02:29:11.901Z,9.39
2018-11-05T02:31:40.111Z,9.41
2018-11-05T02:34:08.271Z,9.45
2018-11-05T02:36:36.530Z,9.47
2018-11-05T02:39:07.314Z,9.38
2018-11-05T02:41:35.566Z,9.37
2018-11-05T02:44:03.714Z,9.45
2018-11-05T02:46:31.845Z,9.42
2018-11-05T02:49:00.062Z,9.36
2018-11-05T02:51:28.205Z,9.39
2018-11-05T02:53:56.347Z,9.39
2018-11-05T02:56:24.582Z,9.43
2018-11-05T02:58:52.715Z,9.44
2018-11-05T03:01:20.870Z,9.50
2018-11-05T03:03:49.035Z,9.47
2018-11-05T03:06:17.255Z,9.45
2018-11-05T03:08:45.426Z,9.46
2018-11-05T03:11:13.614Z,9.27
2018-11-05T03:13:41.773Z,9.35
2018-11-05T03:16:09.914Z,9.36
2018-11-05T03:18:38.074Z,9.23
2018-11-05T03:21:06.203Z,9.18
2018-11-05T03:23:34.366Z,9.17
2018-11-05T03:26:02.518Z,9.21
2018-11-05T03:28:30.662Z,9.33
2018-11-05T03:30:58.850Z,9.35
2018-11-05T03:33:26.986Z,9.35
2018-11-05T03:35:55.178Z,9.32
2018-11-05T03:38:23.316Z,9.33
2018-11-05T03:40:51.463Z,9.45
2018-11-05T03:43:19.625Z,9.39
2018-11-05T03:45:47.847Z,9.44
2018-11-05T03:48:15.986Z,9.47
2018-11-05T03:50:44.139Z,9.47
2018-11-05T03:53:12.360Z,9.41
2018-11-05T03:55:40.579Z,9.37
2018-11-05T03:58:08.660Z,9.42
2018-11-05T04:00:36.819Z,9.45
2018-11-05T04:03:05.132Z,9.39
2018-11-05T04:05:33.319Z,9.24
2018-11-05T04:08:01.489Z,9.30
2018-11-05T04:10:29.655Z,9.33
2018-11-05T04:12:57.810Z,9.40
2018-11-05T04:15:26.063Z,9.38
2018-11-05T04:17:54.144Z,9.30
2018-11-05T04:20:22.281Z,9.26
2018-11-05T04:22:50.446Z,9.24
2018-11-05T04:25:18.602Z,9.27
2018-11-05T04:27:46.913Z,9.27
2018-11-05T04:30:15.762Z,9.27
2018-11-05T04:32:44.145Z,9.30
2018-11-05T04:35:12.848Z,9.23
2018-11-05T04:37:41.026Z,9.19
2018-11-05T04:40:10.444Z,9.16
2018-11-05T04:42:38.597Z,9.20
2018-11-05T04:45:08.083Z,9.29
2018-11-05T04:47:36.276Z,9.32
2018-11-05T04:50:05.204Z,9.22
2018-11-05T04:52:33.435Z,9.22
2018-11-05T04:55:01.650Z,9.33
2018-11-05T04:57:29.886Z,9.41
2018-11-05T04:59:58.062Z,9.43
2018-11-05T05:02:26.247Z,9.48
2018-11-05T05:04:54.385Z,9.48
2018-11-05T05:07:22.585Z,9.10
2018-11-05T05:09:50.752Z,8.95
2018-11-05T05:12:18.901Z,8.80
2018-11-05T05:14:47.152Z,8.84
2018-11-05T05:17:15.304Z,8.84
2018-11-05T05:19:43.538Z,8.81
2018-11-05T05:22:11.712Z,8.68
2018-11-05T05:24:39.869Z,8.67
2018-11-05T05:27:08.018Z,8.68
2018-11-05T05:29:36.172Z,8.78
2018-11-05T05:32:04.502Z,8.85
2018-11-05T05:34:34.122Z,8.86
2018-11-05T05:37:02.343Z,8.87
2018-11-05T05:39:30.566Z,8.86
2018-11-05T05:41:58.721Z,8.91
2018-11-05T05:44:26.858Z,8.97
2018-11-05T05:46:55.089Z,9.05
2018-11-05T05:49:23.462Z,9.13
2018-11-05T05:51:51.605Z,9.17
2018-11-05T05:54:19.794Z,9.12
2018-11-05T05:56:47.946Z,9.18
2018-11-05T05:59:16.091Z,9.24
2018-11-05T06:01:44.250Z,9.41
2018-11-05T06:04:12.413Z,9.45
2018-11-05T06:06:40.664Z,9.52
2018-11-05T06:09:09.791Z,9.54
2018-11-05T06:11:38.246Z,9.53
2018-11-05T06:14:06.595Z,9.60
2018-11-05T06:16:35.426Z,9.63
2018-11-05T06:19:03.713Z,9.65
2018-11-05T06:21:31.851Z,9.83
2018-11-05T06:24:00.165Z,9.50
2018-11-05T06:26:28.296Z,8.92
2018-11-05T06:28:56.445Z,8.64
2018-11-05T06:31:24.637Z,8.64
2018-11-05T06:33:52.822Z,8.79
2018-11-05T06:36:20.992Z,8.75
2018-11-05T06:38:49.167Z,8.71
2018-11-05T06:41:17.427Z,8.81
2018-11-05T06:43:45.548Z,8.85
2018-11-05T06:46:13.729Z,8.89
2018-11-05T06:48:41.924Z,8.98
2018-11-05T06:51:10.010Z,9.13
2018-11-05T06:53:38.150Z,9.39
2018-11-05T06:56:06.471Z,9.54
2018-11-05T06:58:34.683Z,9.69
2018-11-05T07:01:03.750Z,9.85
2018-11-05T07:03:31.971Z,9.98
2018-11-05T07:06:00.156Z,10.02
2018-11-05T07:08:28.274Z,10.06
2018-11-05T07:10:56.467Z,10.05
2018-11-05T07:13:24.643Z,9.88
2018-11-05T07:15:53.626Z,9.73
2018-11-05T07:18:21.838Z,9.35
2018-11-05T07:20:49.907Z,9.33
2018-11-05T07:23:18.063Z,9.32
2018-11-05T07:25:46.194Z,9.40
2018-11-05T07:28:14.367Z,9.41
2018-11-05T07:30:42.959Z,9.45
2018-11-05T07:33:11.148Z,9.41
2018-11-05T07:35:39.234Z,9.43
2018-11-05T07:38:07.413Z,9.35
2018-11-05T07:40:35.548Z,9.40
2018-11-05T07:43:03.794Z,9.43
2018-11-05T07:45:31.949Z,9.68
2018-11-05T07:48:00.095Z,9.44
2018-11-05T07:50:28.319Z,9.55
2018-11-05T07:52:56.402Z,9.61
2018-11-05T07:55:24.609Z,9.71
2018-11-05T07:57:52.983Z,9.85
2018-11-05T08:00:55.066Z,9.95
2018-11-05T08:03:23.885Z,10.01
2018-11-05T08:05:52.054Z,9.82
2018-11-05T08:08:20.281Z,9.74
2018-11-05T08:10:48.398Z,9.75
2018-11-05T08:13:16.576Z,9.82
2018-11-05T08:15:44.708Z,9.89
2018-11-05T08:18:12.845Z,9.97
2018-11-05T08:20:40.990Z,9.98
2018-11-05T08:23:09.194Z,10.13
2018-11-05T08:25:37.333Z,10.19
2018-11-05T08:28:05.713Z,10.19
2018-11-05T08:30:33.966Z,10.33
2018-11-05T08:33:02.111Z,10.16
2018-11-05T08:35:30.261Z,10.21
2018-11-05T08:37:58.413Z,9.98
2018-11-05T08:40:27.342Z,9.98
2018-11-05T08:42:56.051Z,9.97
2018-11-05T08:45:25.458Z,9.87
2018-11-05T08:47:53.579Z,9.83
2018-11-05T08:50:22.745Z,9.84
2018-11-05T08:52:50.776Z,9.80
2018-11-05T08:55:20.397Z,9.83
2018-11-05T08:57:48.653Z,10.00
2018-11-05T09:00:22.895Z,9.96
2018-11-05T09:02:51.369Z,9.94
2018-11-05T09:05:19.686Z,9.92
2018-11-05T09:07:49.370Z,9.92
2018-11-05T09:10:17.735Z,9.91
2018-11-05T09:12:45.678Z,9.84
2018-11-05T09:15:15.212Z,9.88
2018-11-05T09:17:44.084Z,9.84
2018-11-05T09:20:13.495Z,9.97
2018-11-05T09:22:41.874Z,9.88
2018-11-05T09:25:11.067Z,9.87
2018-11-05T09:27:39.264Z,9.92
2018-11-05T09:30:09.882Z,9.99
2018-11-05T09:32:38.029Z,9.96
2018-11-05T09:35:06.688Z,10.01
2018-11-05T09:37:34.922Z,10.10
2018-11-05T09:40:03.105Z,10.13
2018-11-05T09:42:31.424Z,10.12
2018-11-05T09:44:59.542Z,10.14
2018-11-05T09:47:27.704Z,10.12
2018-11-05T09:49:55.862Z,10.17
2018-11-05T09:52:24.042Z,10.15
2018-11-05T09:54:52.203Z,10.24
2018-11-05T09:57:20.474Z,10.17
2018-11-05T09:59:48.527Z,10.21
2018-11-05T10:02:16.675Z,10.15
2018-11-05T10:04:45.234Z,10.16
2018-11-05T10:07:13.133Z,10.07
2018-11-05T10:09:41.319Z,9.99
2018-11-05T10:12:09.446Z,10.04
2018-11-05T10:14:38.310Z,10.22
2018-11-05T10:17:07.059Z,10.06
2018-11-05T10:19:35.191Z,9.93
2018-11-05T10:22:03.363Z,9.84
2018-11-05T10:24:31.587Z,10.08
2018-11-05T10:26:59.722Z,10.19
2018-11-05T10:29:27.902Z,10.15
2018-11-05T10:31:56.043Z,10.17
2018-11-05T10:34:24.198Z,10.21
2018-11-05T10:36:52.383Z,10.35
2018-11-05T10:39:20.537Z,10.43
2018-11-05T10:41:48.670Z,10.48
2018-11-05T10:44:16.906Z,10.55
2018-11-05T10:46:44.995Z,10.47
2018-11-05T10:49:13.131Z,10.73
2018-11-05T10:51:41.425Z,10.75
2018-11-05T10:54:09.498Z,10.55
2018-11-05T10:56:37.678Z,10.49
2018-11-05T10:59:05.918Z,10.68
2018-11-05T11:01:39.373Z,10.92
2018-11-05T11:04:12.935Z,11.00
2018-11-05T11:06:41.086Z,10.94
2018-11-05T11:09:09.402Z,11.02
2018-11-05T11:11:37.558Z,11.10
2018-11-05T11:14:05.701Z,11.35
2018-11-05T11:16:33.842Z,11.26
2018-11-05T11:19:02.053Z,11.34
2018-11-05T11:21:30.278Z,11.14
2018-11-05T11:23:58.479Z,11.13
2018-11-05T11:26:26.641Z,10.95
2018-11-05T11:28:54.859Z,11.10
2018-11-05T11:31:22.966Z,11.10
2018-11-05T11:33:51.157Z,11.15
2018-11-05T11:36:19.522Z,11.32
2018-11-05T11:38:47.680Z,11.26
2018-11-05T11:41:15.891Z,11.58
2018-11-05T11:43:44.042Z,11.71
2018-11-05T11:46:12.194Z,11.88
2018-11-05T11:48:40.357Z,11.85
2018-11-05T11:51:08.513Z,11.69
2018-11-05T11:53:36.731Z,11.76
2018-11-05T11:56:04.896Z,11.58
2018-11-05T11:58:33.041Z,11.57
2018-11-05T12:01:01.224Z,11.69
2018-11-05T12:03:29.414Z,11.74
2018-11-05T12:05:57.555Z,11.91
2018-11-05T12:08:25.727Z,12.07
2018-11-05T12:10:53.934Z,12.24
2018-11-05T12:13:22.086Z,12.39
2018-11-05T12:15:50.234Z,12.50
2018-11-05T12:18:18.390Z,12.27
2018-11-05T12:20:46.563Z,12.21
2018-11-05T12:23:14.809Z,12.27
2018-11-05T12:25:42.966Z,12.34
2018-11-05T12:28:11.110Z,12.10
2018-11-05T12:30:39.258Z,12.13
2018-11-05T12:33:07.516Z,12.11
2018-11-05T12:35:35.826Z,11.93
2018-11-05T12:38:04.023Z,11.92
2018-11-05T12:40:32.183Z,12.13
2018-11-05T12:43:00.351Z,12.17
2018-11-05T12:45:28.503Z,12.21
2018-11-05T12:47:56.676Z,12.32
2018-11-05T12:50:24.954Z,11.89
2018-11-05T12:52:55.029Z,11.60
2018-11-05T12:55:23.347Z,11.57
2018-11-05T12:57:51.494Z,11.68
2018-11-05T13:00:21.309Z,11.53
2018-11-05T13:02:54.597Z,11.42
2018-11-05T13:05:23.398Z,11.42
2018-11-05T13:07:51.713Z,11.49
2018-11-05T13:10:19.958Z,11.60
2018-11-05T13:12:48.254Z,11.45
2018-11-05T13:15:16.515Z,11.70
2018-11-05T13:17:44.658Z,11.86
2018-11-05T13:20:17.795Z,12.00
2018-11-05T13:22:46.180Z,12.30
2018-11-05T13:25:14.399Z,12.30
2018-11-05T13:27:44.705Z,12.44
2018-11-05T13:30:13.501Z,12.55
2018-11-05T13:32:42.254Z,12.54
2018-11-05T13:35:12.051Z,12.52
2018-11-05T13:37:40.870Z,12.59
2018-11-05T13:40:12.260Z,12.27
2018-11-05T13:42:40.416Z,12.73
2018-11-05T13:45:09.937Z,12.42
2018-11-05T13:47:38.902Z,12.09
2018-11-05T13:50:06.876Z,12.57
2018-11-05T13:52:35.102Z,12.79
2018-11-05T13:55:03.370Z,13.01
2018-11-05T13:57:31.439Z,13.51
2018-11-05T13:59:59.532Z,13.29
2018-11-05T14:02:27.714Z,13.05
2018-11-05T14:04:55.850Z,12.76
2018-11-05T14:07:24.000Z,12.76
2018-11-05T14:09:52.183Z,12.75
2018-11-05T14:12:20.335Z,12.81
2018-11-05T14:14:48.492Z,12.71
2018-11-05T14:17:16.660Z,12.83
2018-11-05T14:19:44.823Z,12.66
2018-11-05T14:22:13.042Z,12.50
2018-11-05T14:24:41.155Z,12.63
2018-11-05T14:27:09.306Z,12.87
2018-11-05T14:29:38.311Z,12.90
2018-11-05T14:32:06.421Z,12.81
2018-11-05T14:34:34.495Z,12.83
2018-11-05T14:37:02.708Z,12.79
2018-11-05T14:39:30.860Z,13.01
2018-11-05T14:41:59.095Z,12.58
2018-11-05T14:44:27.235Z,12.56
2018-11-05T14:46:55.393Z,12.59
2018-11-05T14:49:23.561Z,12.33
2018-11-05T14:51:51.752Z,12.03
2018-11-05T14:54:19.898Z,12.00
2018-11-05T14:56:48.887Z,12.06
2018-11-05T14:59:17.054Z,12.11
2018-11-05T15:01:45.656Z,11.96
2018-11-05T15:04:14.501Z,11.98
2018-11-05T15:06:43.337Z,11.99
2018-11-05T15:09:13.046Z,11.94
2018-11-05T15:11:41.239Z,11.85
2018-11-05T15:14:09.478Z,11.82
2018-11-05T15:16:37.634Z,11.62
2018-11-05T15:19:06.476Z,11.64
2018-11-05T15:21:34.354Z,11.49
2018-11-05T15:24:02.522Z,11.41
2018-11-05T15:26:30.690Z,11.39
2018-11-05T15:28:58.817Z,11.31
2018-11-05T15:31:27.917Z,11.21
2018-11-05T15:33:56.223Z,11.28
2018-11-05T15:36:24.251Z,11.24
2018-11-05T15:38:52.420Z,11.00
2018-11-05T15:41:20.582Z,10.96
2018-11-05T15:43:48.818Z,10.91
2018-11-05T15:46:16.978Z,10.86
2018-11-05T15:48:45.119Z,10.84
2018-11-05T15:51:13.436Z,10.79
2018-11-05T15:53:41.613Z,10.72
2018-11-05T15:56:09.566Z,10.69
2018-11-05T15:58:37.846Z,10.66
2018-11-05T16:01:06.608Z,10.52
2018-11-05T16:03:34.755Z,10.43
2018-11-05T16:06:03.474Z,10.49
2018-11-05T16:08:31.693Z,10.53
2018-11-05T16:10:59.864Z,10.62
2018-11-05T16:13:28.918Z,10.45
2018-11-05T16:15:57.082Z,10.34
2018-11-05T16:18:25.219Z,10.27
2018-11-05T16:20:53.448Z,10.06
2018-11-05T16:23:21.645Z,9.70
2018-11-05T16:25:49.846Z,9.72
2018-11-05T16:28:17.975Z,9.74
2018-11-05T16:30:46.233Z,9.60
2018-11-05T16:33:14.282Z,9.59
2018-11-05T16:35:43.106Z,9.57
2018-11-05T16:38:11.151Z,9.70
2018-11-05T16:40:39.313Z,9.84
2018-11-05T16:43:07.503Z,9.74
2018-11-05T16:45:35.694Z,9.61
2018-11-05T16:48:03.823Z,9.49
2018-11-05T16:50:32.078Z,9.30
2018-11-05T16:53:00.231Z,8.86
2018-11-05T16:55:28.518Z,8.65
2018-11-05T16:57:56.738Z,8.61
2018-11-05T17:00:24.815Z,8.53
2018-11-05T17:02:53.590Z,8.51
2018-11-05T17:05:21.726Z,8.48
2018-11-05T17:07:49.854Z,8.51
2018-11-05T17:10:18.039Z,8.48
2018-11-05T17:12:46.302Z,8.50
2018-11-05T17:15:15.607Z,8.81
2018-11-05T17:17:44.113Z,8.98
2018-11-05T17:20:14.340Z,8.81
2018-11-05T17:22:42.897Z,8.21
2018-11-05T17:25:12.299Z,8.11
2018-11-05T17:27:40.781Z,8.15
2018-11-05T17:30:11.821Z,8.28
2018-11-05T17:32:40.262Z,8.38
2018-11-05T17:35:08.469Z,8.30
2018-11-05T17:37:36.624Z,8.10
2018-11-05T17:40:06.283Z,7.98
2018-11-05T17:42:34.434Z,7.81
2018-11-05T17:45:02.620Z,7.63
2018-11-05T17:47:30.914Z,7.45
2018-11-05T17:49:59.097Z,7.32
2018-11-05T17:52:27.231Z,7.32
2018-11-05T17:54:55.438Z,7.42
2018-11-05T17:57:23.589Z,7.57
2018-11-05T17:59:51.736Z,7.82
2018-11-05T18:02:24.965Z,8.00
2018-11-05T18:04:54.845Z,7.59
2018-11-05T18:07:23.525Z,7.30
2018-11-05T18:09:52.423Z,6.68
2018-11-05T18:12:20.566Z,6.70
2018-11-05T18:14:48.714Z,6.82
2018-11-05T18:17:16.847Z,7.10
2018-11-05T18:19:45.006Z,7.03
2018-11-05T18:22:13.297Z,6.90
2018-11-05T18:24:41.772Z,6.79
2018-11-05T18:27:09.965Z,6.75
2018-11-05T18:29:38.393Z,6.50
2018-11-05T18:32:06.725Z,6.52
2018-11-05T18:34:34.975Z,6.55
2018-11-05T18:37:03.127Z,6.52
2018-11-05T18:39:31.268Z,6.61
2018-11-05T18:41:59.447Z,6.64
2018-11-05T18:44:27.609Z,6.49
2018-11-05T18:46:55.754Z,6.25
2018-11-05T18:49:24.926Z,6.25
2018-11-05T18:51:53.249Z,6.25
2018-11-05T18:54:21.485Z,6.29
2018-11-05T18:56:49.709Z,6.16
2018-11-05T18:59:17.940Z,6.21
2018-11-05T19:01:46.102Z,6.45
2018-11-05T19:04:14.388Z,6.50
2018-11-05T19:06:44.297Z,6.38
2018-11-05T19:09:12.556Z,6.09
2018-11-05T19:11:41.258Z,5.57
2018-11-05T19:14:09.485Z,5.62
2018-11-05T19:16:37.701Z,5.78
2018-11-05T19:19:08.975Z,6.37
2018-11-05T19:21:37.110Z,6.68
2018-11-05T19:24:05.541Z,6.71
2018-11-05T19:26:33.575Z,6.70
2018-11-05T19:29:01.854Z,5.95
2018-11-05T19:31:30.012Z,5.46
2018-11-05T19:33:58.278Z,5.40
2018-11-05T19:36:26.321Z,5.37
2018-11-05T19:38:54.478Z,5.34
2018-11-05T19:41:22.711Z,5.36
2018-11-05T19:43:50.808Z,5.39
2018-11-05T19:46:18.939Z,5.54
2018-11-05T19:48:49.203Z,5.71
2018-11-05T19:51:17.462Z,5.70
2018-11-05T19:53:45.663Z,5.71
2018-11-05T19:56:14.041Z,6.19
2018-11-05T19:58:41.945Z,6.28
2018-11-05T20:01:10.665Z,6.12
2018-11-05T20:03:38.876Z,5.87
2018-11-05T20:06:07.096Z,5.82
2018-11-05T20:08:35.218Z,5.80
2018-11-05T20:11:03.370Z,6.10
2018-11-05T20:13:31.505Z,6.27
2018-11-05T20:15:59.718Z,6.48
2018-11-05T20:18:27.968Z,6.39
2018-11-05T20:20:56.028Z,6.30
2018-11-05T20:23:24.741Z,6.11
2018-11-05T20:25:52.899Z,5.91
2018-11-05T20:28:21.102Z,5.86
2018-11-05T20:30:49.205Z,5.88
2018-11-05T20:33:17.559Z,5.99
2018-11-05T20:35:45.607Z,6.27
2018-11-05T20:38:14.303Z,6.60
2018-11-05T20:40:42.486Z,6.81
2018-11-05T20:43:10.585Z,6.87
2018-11-05T20:45:38.799Z,6.77
2018-11-05T20:48:06.982Z,6.72
2018-11-05T20:50:35.173Z,6.63
2018-11-05T20:53:03.346Z,6.44
2018-11-05T20:55:31.510Z,6.19
2018-11-05T20:57:59.681Z,6.10
2018-11-05T21:00:27.905Z,6.18
2018-11-05T21:02:56.052Z,6.33
2018-11-05T21:05:24.201Z,6.47
2018-11-05T21:07:52.611Z,6.61
2018-11-05T21:10:20.859Z,6.60
2018-11-05T21:12:49.007Z,6.69
2018-11-05T21:15:18.447Z,6.71
2018-11-05T21:17:47.534Z,6.60
2018-11-05T21:20:15.901Z,6.33
2018-11-05T21:22:44.556Z,6.32
2018-11-05T21:25:12.663Z,6.35
2018-11-05T21:27:41.535Z,6.39
2018-11-05T21:30:11.590Z,6.54
2018-11-05T21:32:39.866Z,6.79
2018-11-05T21:35:10.019Z,6.84
2018-11-05T21:37:39.153Z,6.98
2018-11-05T21:40:08.241Z,6.97
2018-11-05T21:42:36.833Z,6.97
2018-11-05T21:45:07.046Z,7.21
2018-11-05T21:47:35.341Z,7.10
2018-11-05T21:50:04.159Z,6.74
2018-11-05T21:52:32.296Z,6.52
2018-11-05T21:55:00.439Z,6.33
2018-11-05T21:57:28.579Z,6.29
2018-11-05T21:59:56.754Z,6.30
2018-11-05T22:02:24.915Z,6.24
2018-11-05T22:04:53.071Z,6.19
2018-11-05T22:07:21.281Z,6.07
2018-11-05T22:09:49.949Z,6.05
2018-11-05T22:12:18.131Z,6.02
2018-11-05T22:14:46.359Z,5.92
2018-11-05T22:17:14.521Z,5.81
2018-11-05T22:19:42.702Z,5.74
2018-11-05T22:22:10.901Z,5.66
2018-11-05T22:24:39.078Z,5.61
2018-11-05T22:27:08.149Z,5.74
2018-11-05T22:29:36.302Z,5.82
2018-11-05T22:32:04.718Z,5.77
2018-11-05T22:34:33.075Z,5.75
2018-11-05T22:37:01.225Z,5.81
2018-11-05T22:39:29.376Z,5.86
2018-11-05T22:41:57.553Z,6.01
2018-11-05T22:44:25.692Z,6.19
2018-11-05T22:46:53.847Z,6.18
2018-11-05T22:49:22.068Z,6.17
2018-11-05T22:51:50.275Z,5.96
2018-11-05T22:54:18.434Z,5.88
2018-11-05T22:56:47.355Z,5.85
2018-11-05T22:59:15.567Z,5.82
2018-11-05T23:01:49.083Z,5.83
2018-11-05T23:04:17.317Z,5.81
2018-11-05T23:06:45.469Z,5.79
2018-11-05T23:09:13.634Z,5.76
2018-11-05T23:11:42.319Z,5.79
2018-11-05T23:14:10.487Z,5.76
2018-11-05T23:16:39.119Z,5.71
2018-11-05T23:19:09.033Z,5.69
2018-11-05T23:21:37.502Z,5.69
2018-11-05T23:24:05.882Z,5.69
2018-11-05T23:26:34.028Z,5.60
2018-11-05T23:29:02.178Z,5.64
2018-11-05T23:31:30.441Z,5.64
2018-11-05T23:33:58.606Z,5.63
2018-11-05T23:36:27.042Z,5.74
2018-11-05T23:38:55.379Z,5.69
2018-11-05T23:41:25.060Z,5.59
2018-11-05T23:43:54.898Z,5.65
2018-11-05T23:46:24.213Z,5.57
2018-11-05T23:48:52.342Z,5.53
2018-11-05T23:51:20.489Z,5.54
2018-11-05T23:53:48.645Z,5.56
2018-11-05T23:56:16.781Z,5.59
2018-11-05T23:58:44.932Z,5.63
